DLH33T EDDS-EDDF
Flight info
| Callsign | DLH33T |
|---|---|
| Flight time | 0h 26m |
| Altitude | 22000 |
| Route | ETASA2H/07 ETASA T163 SPESA SPESA4C |
| Aircraft | A320/M-L/LB1 |
Departure
| Time | 2026-05-01 14:53 |
|---|---|
| Airport | Stuttgart Airport (EDDS) |
Arrival
| Time | 2026-05-01 15:20 |
|---|---|
| Airport | Frankfurt Main Airport (EDDF) |
| Time | Latitude | Longitude | Altitude | Speed | Heading |
|---|---|---|---|---|---|
| 2026-05-01 14:38 | 48.68792 | 9.19684 | 1304 ft | 0 kts | 164° |
| 2026-05-01 14:39 | 48.68796 | 9.19682 | 1304 ft | 0 kts | 163° |
| 2026-05-01 14:51 | 48.68792 | 9.19683 | 1304 ft | 2 kts | 164° |
| 2026-05-01 14:51 | 48.68739 | 9.19749 | 1299 ft | 10 kts | 85° |
| 2026-05-01 14:52 | 48.68676 | 9.19991 | 1288 ft | 20 kts | 164° |
| 2026-05-01 14:52 | 48.68579 | 9.20046 | 1284 ft | 4 kts | 105° |
| 2026-05-01 14:52 | 48.68603 | 9.20174 | 1284 ft | 38 kts | 74° |
| 2026-05-01 14:53 | 48.68747 | 9.20934 | 1274 ft | 109 kts | 73° |
| 2026-05-01 14:53 | 48.69006 | 9.22316 | 1271 ft | 158 kts | 76° |
| 2026-05-01 14:53 | 48.69285 | 9.23919 | 1868 ft | 160 kts | 75° |
| 2026-05-01 14:53 | 48.69580 | 9.25552 | 2603 ft | 164 kts | 76° |
| 2026-05-01 14:54 | 48.69911 | 9.27312 | 2997 ft | 185 kts | 76° |
| 2026-05-01 14:54 | 48.70293 | 9.29333 | 3274 ft | 210 kts | 75° |
| 2026-05-01 14:54 | 48.70722 | 9.31591 | 3739 ft | 235 kts | 75° |
| 2026-05-01 14:54 | 48.71197 | 9.34071 | 4313 ft | 253 kts | 76° |
| 2026-05-01 14:55 | 48.71695 | 9.36644 | 4859 ft | 262 kts | 76° |
| 2026-05-01 14:55 | 48.72222 | 9.39309 | 5487 ft | 266 kts | 73° |
| 2026-05-01 14:55 | 48.73216 | 9.41698 | 6363 ft | 278 kts | 44° |
| 2026-05-01 14:55 | 48.74930 | 9.43104 | 7180 ft | 287 kts | 20° |
| 2026-05-01 14:56 | 48.76899 | 9.43682 | 8033 ft | 293 kts | 359° |
| 2026-05-01 14:56 | 48.78900 | 9.43052 | 8939 ft | 295 kts | 340° |
| 2026-05-01 14:56 | 48.80781 | 9.41747 | 9746 ft | 301 kts | 331° |
| 2026-05-01 14:56 | 48.82645 | 9.40253 | 10537 ft | 308 kts | 333° |
| 2026-05-01 14:57 | 48.84647 | 9.38766 | 10812 ft | 331 kts | 335° |
| 2026-05-01 14:57 | 48.89095 | 9.35592 | 11442 ft | 368 kts | 335° |
| 2026-05-01 14:57 | 48.91427 | 9.33921 | 12184 ft | 372 kts | 335° |
| 2026-05-01 14:58 | 48.93765 | 9.32204 | 12879 ft | 377 kts | 335° |
| 2026-05-01 14:58 | 48.96129 | 9.30423 | 13629 ft | 380 kts | 335° |
| 2026-05-01 14:58 | 48.98509 | 9.28600 | 14310 ft | 384 kts | 334° |
| 2026-05-01 14:58 | 49.00907 | 9.26747 | 14989 ft | 387 kts | 334° |
| 2026-05-01 14:59 | 49.03326 | 9.24884 | 15581 ft | 392 kts | 334° |
| 2026-05-01 14:59 | 49.05778 | 9.23007 | 16210 ft | 395 kts | 334° |
| 2026-05-01 14:59 | 49.08221 | 9.21146 | 16797 ft | 399 kts | 334° |
| 2026-05-01 14:59 | 49.10718 | 9.19252 | 17408 ft | 403 kts | 335° |
| 2026-05-01 15:00 | 49.15786 | 9.15421 | 18653 ft | 409 kts | 338° |
| 2026-05-01 15:00 | 49.18503 | 9.14027 | 19259 ft | 409 kts | 348° |
| 2026-05-01 15:00 | 49.21295 | 9.13387 | 19818 ft | 409 kts | 359° |
| 2026-05-01 15:01 | 49.24141 | 9.13523 | 20367 ft | 410 kts | 7° |
| 2026-05-01 15:01 | 49.26983 | 9.13960 | 20936 ft | 412 kts | 6° |
| 2026-05-01 15:01 | 49.29846 | 9.14381 | 21484 ft | 414 kts | 8° |
| 2026-05-01 15:01 | 49.32716 | 9.14794 | 22016 ft | 416 kts | 6° |
| 2026-05-01 15:02 | 49.35616 | 9.14840 | 22261 ft | 419 kts | 355° |
| 2026-05-01 15:02 | 49.36589 | 9.14591 | 22285 ft | 423 kts | 348° |
| 2026-05-01 15:02 | 49.41275 | 9.11777 | 22298 ft | 444 kts | 336° |
| 2026-05-01 15:02 | 49.44095 | 9.09817 | 22304 ft | 446 kts | 337° |
| 2026-05-01 15:03 | 49.46915 | 9.07832 | 22301 ft | 446 kts | 336° |
| 2026-05-01 15:03 | 49.49736 | 9.05837 | 22300 ft | 446 kts | 337° |
| 2026-05-01 15:03 | 49.52559 | 9.03844 | 22299 ft | 447 kts | 337° |
| 2026-05-01 15:03 | 49.55383 | 9.01861 | 22303 ft | 447 kts | 336° |
| 2026-05-01 15:04 | 49.58211 | 8.99884 | 22298 ft | 447 kts | 337° |
| 2026-05-01 15:04 | 49.61025 | 8.97923 | 22082 ft | 439 kts | 336° |
| 2026-05-01 15:04 | 49.63805 | 8.95984 | 21407 ft | 435 kts | 336° |
| 2026-05-01 15:04 | 49.66542 | 8.94071 | 20722 ft | 432 kts | 337° |
| 2026-05-01 15:05 | 49.69278 | 8.92158 | 20054 ft | 430 kts | 336° |
| 2026-05-01 15:05 | 49.71993 | 8.90254 | 19444 ft | 427 kts | 336° |
| 2026-05-01 15:05 | 49.74682 | 8.88361 | 18853 ft | 424 kts | 336° |
| 2026-05-01 15:05 | 49.77359 | 8.86475 | 18226 ft | 421 kts | 336° |
| 2026-05-01 15:06 | 49.80021 | 8.84596 | 17600 ft | 418 kts | 336° |
| 2026-05-01 15:06 | 49.82657 | 8.82735 | 16999 ft | 416 kts | 336° |
| 2026-05-01 15:06 | 49.85275 | 8.80887 | 16437 ft | 412 kts | 336° |
| 2026-05-01 15:06 | 49.87871 | 8.79055 | 15802 ft | 405 kts | 336° |
| 2026-05-01 15:07 | 49.90403 | 8.77197 | 14744 ft | 401 kts | 331° |
| 2026-05-01 15:07 | 49.92609 | 8.74615 | 13725 ft | 397 kts | 315° |
| 2026-05-01 15:07 | 49.94271 | 8.71252 | 12666 ft | 390 kts | 298° |
| 2026-05-01 15:07 | 49.95282 | 8.67389 | 11634 ft | 382 kts | 282° |
| 2026-05-01 15:08 | 49.95599 | 8.63356 | 10658 ft | 372 kts | 267° |
| 2026-05-01 15:08 | 49.95236 | 8.59471 | 9954 ft | 354 kts | 251° |
| 2026-05-01 15:08 | 49.94436 | 8.56022 | 9808 ft | 324 kts | 246° |
| 2026-05-01 15:08 | 49.93685 | 8.52874 | 9658 ft | 299 kts | 246° |
| 2026-05-01 15:09 | 49.92986 | 8.49919 | 9218 ft | 288 kts | 248° |
| 2026-05-01 15:09 | 49.92297 | 8.47026 | 8630 ft | 284 kts | 246° |
| 2026-05-01 15:09 | 49.91612 | 8.44165 | 8004 ft | 280 kts | 247° |
| 2026-05-01 15:09 | 49.90934 | 8.41346 | 7398 ft | 278 kts | 247° |
| 2026-05-01 15:10 | 49.90261 | 8.38552 | 6797 ft | 275 kts | 246° |
| 2026-05-01 15:10 | 49.88932 | 8.33063 | 5520 ft | 270 kts | 246° |
| 2026-05-01 15:10 | 49.88276 | 8.30372 | 5299 ft | 267 kts | 246° |
| 2026-05-01 15:11 | 49.87755 | 8.27580 | 5291 ft | 274 kts | 263° |
| 2026-05-01 15:11 | 49.88219 | 8.21694 | 5292 ft | 280 kts | 292° |
| 2026-05-01 15:11 | 49.89059 | 8.19060 | 5277 ft | 265 kts | 296° |
| 2026-05-01 15:12 | 49.89959 | 8.16608 | 5153 ft | 256 kts | 298° |
| 2026-05-01 15:12 | 49.92155 | 8.12809 | 4875 ft | 227 kts | 348° |
| 2026-05-01 15:12 | 49.93162 | 8.12723 | 4699 ft | 214 kts | 18° |
| 2026-05-01 15:13 | 49.94886 | 8.17609 | 4045 ft | 166 kts | 90° |
| 2026-05-01 15:14 | 49.95164 | 8.21098 | 3989 ft | 162 kts | 82° |
| 2026-05-01 15:14 | 49.95446 | 8.22802 | 3993 ft | 164 kts | 78° |
| 2026-05-01 15:14 | 49.96189 | 8.26160 | 3900 ft | 165 kts | 73° |
| 2026-05-01 15:15 | 49.96972 | 8.29425 | 3544 ft | 156 kts | 73° |
| 2026-05-01 15:15 | 49.97744 | 8.32621 | 3113 ft | 155 kts | 73° |
| 2026-05-01 15:16 | 49.98501 | 8.35755 | 2695 ft | 155 kts | 73° |
| 2026-05-01 15:16 | 49.99229 | 8.38766 | 2315 ft | 147 kts | 74° |
| 2026-05-01 15:17 | 49.99938 | 8.41705 | 1940 ft | 139 kts | 75° |
| 2026-05-01 15:18 | 50.00932 | 8.45837 | 1408 ft | 136 kts | 72° |
| 2026-05-01 15:18 | 50.01260 | 8.47205 | 1214 ft | 136 kts | 73° |
| 2026-05-01 15:19 | 50.02246 | 8.51277 | 678 ft | 134 kts | 72° |
| 2026-05-01 15:19 | 50.02887 | 8.53967 | 353 ft | 130 kts | 71° |
| 2026-05-01 15:19 | 50.03162 | 8.55123 | 346 ft | 88 kts | 70° |
| 2026-05-01 15:20 | 50.03425 | 8.56176 | 352 ft | 37 kts | 60° |
| 2026-05-01 15:20 | 50.03562 | 8.56404 | 350 ft | 16 kts | 39° |
| 2026-05-01 15:20 | 50.03635 | 8.56498 | 350 ft | 9 kts | 39° |
| 2026-05-01 15:21 | 50.03681 | 8.56556 | 353 ft | 8 kts | 39° |
| 2026-05-01 15:21 | 50.03722 | 8.56609 | 351 ft | 8 kts | 40° |
| 2026-05-01 15:21 | 50.03766 | 8.56673 | 356 ft | 10 kts | 46° |
| 2026-05-01 15:21 | 50.03802 | 8.56770 | 355 ft | 12 kts | 71° |
| 2026-05-01 15:22 | 50.03820 | 8.56844 | 357 ft | 14 kts | 70° |
| 2026-05-01 15:23 | 50.03837 | 8.56917 | 356 ft | 16 kts | 70° |
| 2026-05-01 15:24 | 50.03905 | 8.57208 | 362 ft | 42 kts | 69° |
| 2026-05-01 15:24 | 50.04019 | 8.57683 | 368 ft | 46 kts | 70° |
| 2026-05-01 15:24 | 50.04119 | 8.58087 | 369 ft | 27 kts | 60° |
| 2026-05-01 15:24 | 50.04222 | 8.58189 | 368 ft | 18 kts | 30° |
| 2026-05-01 15:25 | 50.04338 | 8.58173 | 371 ft | 17 kts | 341° |
| 2026-05-01 15:25 | 50.04444 | 8.58111 | 366 ft | 16 kts | 340° |
| 2026-05-01 15:25 | 50.04551 | 8.58052 | 365 ft | 17 kts | 341° |
| 2026-05-01 15:25 | 50.04669 | 8.57983 | 361 ft | 19 kts | 339° |
| 2026-05-01 15:26 | 50.04782 | 8.58015 | 358 ft | 18 kts | 50° |
| 2026-05-01 15:26 | 50.04784 | 8.58084 | 361 ft | 0 kts | 161° |
| 2026-05-01 15:26 | 50.04766 | 8.58095 | 359 ft | 2 kts | 159° |
| 2026-05-01 15:26 | 50.04760 | 8.58099 | 364 ft | 4 kts | 159° |
| 2026-05-01 15:27 | 50.04743 | 8.58109 | 365 ft | 2 kts | 159° |
| 2026-05-01 15:27 | 50.04731 | 8.58116 | 366 ft | 4 kts | 159° |
| 2026-05-01 15:27 | 50.04719 | 8.58123 | 366 ft | 0 kts | 159° |